Airfield :
LOGIN :

Register | Disclaimer

   EN    FR    IT 

 










Legend :    VFR   Marginal VFR   IFR   Intensive IFR   Very Intensive IFR
Visi :
Ceiling :
>= 8 km
>= 3000ft
5 to 8 km
1000 to 3000 ft
1500m to 5 km
500 to 1000 ft
800 to 1500m
200 to 500 ft
< 800m
< 200 ft
Symbols :   Thunderstorms  Fog  Heavy snow  Heavy precipitations  Wind > 20 kt
SIGMETs :     Misc.  Thunderstorms  Icing  Turbulence  Mountain Waves  Volcanic Ashes






- Airport Elevation : 383 ft
- IATA code : UDJ


UKLU - Uzhhorod

CURRENT METAR :
  • 040800Z 11003MPS 060V150 9999 -SHRA SCT018CB SCT018 12/11 Q1004 R10/090070 NOSIG

EXPIRED METARs :
  • 040736Z 11004MPS 050V210 2100 -SHRA SCT015CB SCT015 15/09 Q1004 R10/090070 NOSIG
  • 040700Z 12003MPS 070V200 9999 -SHRA SCT018CB SCT018 15/09 Q1004 R10/090070 NOSIG
  • 040630Z 11004MPS 060V170 9999 BKN020 13/08 Q1004 R10/090070 NOSIG
  • 040600Z 11004MPS 040V170 9999 OVC024 13/08 Q1004 R10/090070 NOSIG

TAF TAF UKLU
Valid from the 04 at 06:00 until the 04 at 15:00 UTC


040505Z 0406/0415 12003MPS 9999 BKN040
TEMPO 0409/0415 VRB06G11MPS -TSRA SCT040CB



MET'MAP, your aeronautical weather chart ! - Copyright ORBIFLY December 2007 - Disclaimer

ORBIFLY MET'MAP TEAM :

Programming & Development : Alexandra Zaïnal
Concept & original design : Baudouin d'Aumeries
Assistance for programming : Marc-Olivier Méhu
Technical & hardware support : Manuel Goepfert

Contact : metmap@orbifly.com




SOURCES & CREDITS :

   NOAA